createdAt,value
2023-03-06T00:00:34.902Z,45.17
2023-03-06T00:03:03.119Z,48.43
2023-03-06T00:05:31.376Z,47.43
2023-03-06T00:07:59.434Z,45.97
2023-03-06T00:10:29.579Z,48.90
2023-03-06T00:13:00.114Z,49.50
2023-03-06T00:15:29.139Z,48.50
2023-03-06T00:17:58.917Z,47.33
2023-03-06T00:20:28.772Z,48.50
2023-03-06T00:22:57.242Z,48.70
2023-03-06T00:25:25.535Z,50.33
2023-03-06T00:27:53.772Z,48.20
2023-03-06T00:30:24.065Z,47.80
2023-03-06T00:32:53.499Z,47.77
2023-03-06T00:35:22.952Z,46.57
2023-03-06T00:37:51.009Z,48.23
2023-03-06T00:40:21.589Z,50.80
2023-03-06T00:42:49.856Z,50.03
2023-03-06T00:45:18.033Z,47.00
2023-03-06T00:47:46.116Z,49.93
2023-03-06T00:50:14.109Z,46.50
2023-03-06T00:52:43.484Z,51.57
2023-03-06T00:55:12.020Z,46.27
2023-03-06T00:57:40.126Z,49.80
2023-03-06T01:00:11.538Z,47.57
2023-03-06T01:02:39.746Z,50.20
2023-03-06T01:05:09.144Z,50.40
2023-03-06T01:07:37.521Z,48.10
2023-03-06T01:10:08.949Z,46.63
2023-03-06T01:12:36.995Z,47.90
2023-03-06T01:15:06.274Z,48.13
2023-03-06T01:17:34.337Z,46.80
2023-03-06T01:20:02.560Z,48.47
2023-03-06T01:22:30.704Z,46.17
2023-03-06T01:24:58.755Z,47.00
2023-03-06T01:27:28.227Z,46.43
2023-03-06T01:29:56.406Z,45.73
2023-03-06T01:32:24.515Z,46.07
2023-03-06T01:34:52.518Z,45.03
2023-03-06T01:37:20.660Z,45.47
2023-03-06T01:39:48.693Z,47.53
2023-03-06T01:42:16.765Z,44.57
2023-03-06T01:45:03.899Z,48.30
2023-03-06T01:47:32.042Z,43.80
2023-03-06T01:50:01.665Z,43.67
2023-03-06T01:52:32.658Z,46.67
2023-03-06T01:55:04.638Z,44.73
2023-03-06T01:57:36.243Z,44.93
2023-03-06T02:00:10.130Z,43.50
2023-03-06T02:02:39.013Z,46.40
2023-03-06T02:05:08.601Z,45.17
2023-03-06T02:07:38.443Z,45.93
2023-03-06T02:10:07.268Z,46.87
2023-03-06T02:12:35.419Z,46.63
2023-03-06T02:15:05.367Z,46.80
2023-03-06T02:17:36.582Z,46.00
2023-03-06T02:20:11.550Z,44.70
2023-03-06T02:22:47.416Z,48.60
2023-03-06T02:25:32.120Z,46.53
2023-03-06T02:28:00.182Z,46.13
2023-03-06T02:30:30.810Z,45.73
2023-03-06T02:32:59.411Z,47.37
2023-03-06T02:35:28.670Z,47.53
2023-03-06T02:37:58.570Z,45.70
2023-03-06T02:40:28.108Z,46.97
2023-03-06T02:42:58.258Z,45.73
2023-03-06T02:45:33.262Z,47.23
2023-03-06T02:48:01.348Z,43.13
2023-03-06T02:50:29.379Z,47.40
2023-03-06T02:52:57.396Z,48.10
2023-03-06T02:55:26.921Z,47.47
2023-03-06T02:57:54.995Z,46.90
2023-03-06T03:00:23.265Z,47.57
2023-03-06T03:02:51.417Z,51.00
2023-03-06T03:05:19.500Z,44.67
2023-03-06T03:07:47.485Z,48.87
2023-03-06T03:10:16.179Z,53.97
2023-03-06T03:12:46.263Z,49.33
2023-03-06T03:15:14.229Z,45.87
2023-03-06T03:17:42.859Z,49.47
2023-03-06T03:20:14.765Z,47.23
2023-03-06T03:22:42.909Z,50.23
2023-03-06T03:25:11.306Z,48.50
2023-03-06T03:27:39.387Z,48.90
2023-03-06T03:30:10.683Z,47.13
2023-03-06T03:32:38.770Z,48.53
2023-03-06T03:35:09.296Z,58.13
2023-03-06T03:37:37.843Z,46.00
2023-03-06T03:40:07.321Z,48.30
2023-03-06T03:42:35.578Z,47.40
2023-03-06T03:45:03.786Z,49.33
2023-03-06T03:47:33.188Z,48.67
2023-03-06T03:50:01.184Z,48.33
2023-03-06T03:52:30.264Z,48.73
2023-03-06T03:54:58.419Z,48.10
2023-03-06T03:57:26.595Z,48.73
2023-03-06T03:59:54.884Z,52.53
2023-03-06T04:02:22.960Z,48.03
2023-03-06T04:04:52.463Z,47.60
2023-03-06T04:07:20.461Z,45.47
2023-03-06T04:09:48.447Z,46.67
2023-03-06T04:12:16.419Z,43.73
2023-03-06T04:14:44.392Z,45.30
2023-03-06T04:17:12.376Z,45.27
2023-03-06T04:19:40.342Z,45.33
2023-03-06T04:22:09.878Z,40.67
2023-03-06T04:24:37.982Z,44.03
2023-03-06T04:27:06.442Z,45.17
2023-03-06T04:29:34.519Z,42.53
2023-03-06T04:32:03.703Z,43.23
2023-03-06T04:34:31.712Z,43.57
2023-03-06T04:36:59.693Z,46.60
2023-03-06T04:39:29.150Z,42.47
2023-03-06T04:41:57.136Z,43.40
2023-03-06T04:44:25.283Z,43.00
2023-03-06T04:46:53.241Z,44.67
2023-03-06T04:49:21.241Z,42.67
2023-03-06T04:51:49.239Z,41.00
2023-03-06T04:54:18.996Z,41.20
2023-03-06T04:56:48.481Z,44.17
2023-03-06T04:59:16.614Z,41.53
2023-03-06T05:01:44.663Z,43.30
2023-03-06T05:04:12.711Z,42.77
2023-03-06T05:06:40.673Z,42.53
2023-03-06T05:09:08.758Z,48.13
2023-03-06T05:11:36.963Z,40.20
2023-03-06T05:14:06.356Z,40.07
2023-03-06T05:16:34.374Z,43.13
2023-03-06T05:19:02.398Z,41.23
2023-03-06T05:21:30.378Z,41.17
2023-03-06T05:23:58.410Z,44.37
2023-03-06T05:26:26.456Z,41.17
2023-03-06T05:28:55.274Z,43.30
2023-03-06T05:31:24.655Z,41.47
2023-03-06T05:33:52.741Z,44.10
2023-03-06T05:36:20.746Z,43.07
2023-03-06T05:38:48.754Z,44.00
2023-03-06T05:41:16.769Z,42.53
2023-03-06T05:43:44.854Z,41.80
2023-03-06T05:46:13.247Z,39.33
2023-03-06T05:48:42.816Z,40.90
2023-03-06T05:51:11.996Z,38.80
2023-03-06T05:53:40.151Z,41.73
2023-03-06T05:56:09.918Z,40.77
2023-03-06T05:58:39.315Z,38.30
2023-03-06T06:01:11.240Z,39.53
2023-03-06T06:03:39.453Z,39.53
2023-03-06T06:06:12.130Z,39.07
2023-03-06T06:08:40.802Z,41.03
2023-03-06T06:11:10.624Z,39.13
2023-03-06T06:13:39.408Z,40.17
2023-03-06T06:16:11.512Z,41.47
2023-03-06T06:18:41.401Z,38.57
2023-03-06T06:21:13.358Z,39.50
2023-03-06T06:23:41.497Z,40.83
2023-03-06T06:26:10.743Z,40.10
2023-03-06T06:28:39.074Z,40.40
2023-03-06T06:31:12.232Z,39.33
2023-03-06T06:33:40.667Z,41.23
2023-03-06T06:36:17.602Z,40.17
2023-03-06T06:38:45.915Z,43.13
2023-03-06T06:44:02.387Z,40.77
2023-03-06T06:47:18.202Z,41.13
2023-03-06T06:49:18.757Z,43.50
2023-03-06T06:51:48.156Z,43.63
2023-03-06T06:54:16.173Z,41.40
2023-03-06T06:56:44.184Z,41.63
2023-03-06T06:59:17.238Z,43.60
2023-03-06T07:01:46.193Z,44.07
2023-03-06T07:04:14.743Z,39.97
2023-03-06T07:06:43.392Z,41.53
2023-03-06T07:09:13.579Z,42.63
2023-03-06T07:11:42.189Z,41.47
2023-03-06T07:14:10.258Z,42.50
2023-03-06T07:16:39.046Z,41.83
2023-03-06T07:19:07.628Z,46.90
2023-03-06T07:21:35.796Z,43.60
2023-03-06T07:24:03.855Z,44.93
2023-03-06T07:26:34.768Z,43.60
2023-03-06T07:29:03.593Z,43.03
2023-03-06T07:31:31.919Z,42.63
2023-03-06T07:34:01.909Z,41.20
2023-03-06T07:36:31.186Z,43.80
2023-03-06T07:38:59.541Z,46.40
2023-03-06T07:41:27.622Z,41.83
2023-03-06T07:43:57.015Z,43.27
2023-03-06T07:46:25.136Z,43.13
2023-03-06T07:48:53.215Z,44.60
2023-03-06T07:51:22.963Z,43.53
2023-03-06T07:53:51.556Z,44.53
2023-03-06T07:56:19.987Z,43.30
2023-03-06T07:58:48.790Z,45.00
2023-03-06T08:01:20.760Z,43.87
2023-03-06T08:03:49.988Z,44.57
2023-03-06T08:06:20.668Z,44.23
2023-03-06T08:08:49.770Z,44.87
2023-03-06T08:11:19.986Z,45.33
2023-03-06T08:13:48.770Z,46.07
2023-03-06T08:16:20.461Z,44.60
2023-03-06T08:18:48.568Z,45.50
2023-03-06T08:21:18.526Z,45.00
2023-03-06T08:23:47.644Z,46.13
2023-03-06T08:26:17.361Z,47.10
2023-03-06T08:28:45.765Z,43.93
2023-03-06T08:31:22.303Z,46.20
2023-03-06T08:33:51.787Z,52.13
2023-03-06T08:36:20.122Z,46.50
2023-03-06T08:38:48.504Z,48.50
2023-03-06T08:41:16.532Z,48.60
2023-03-06T08:43:45.147Z,50.23
2023-03-06T08:46:13.543Z,50.63
2023-03-06T08:48:41.957Z,52.43
2023-03-06T08:51:11.861Z,51.43
2023-03-06T08:53:43.501Z,50.37
2023-03-06T08:56:17.380Z,51.67
2023-03-06T08:58:45.986Z,52.67
2023-03-06T09:01:15.946Z,50.90
2023-03-06T09:03:44.192Z,54.57
2023-03-06T09:06:14.444Z,51.00
2023-03-06T09:08:44.373Z,53.97
2023-03-06T09:11:13.369Z,49.40
2023-03-06T09:13:42.151Z,52.93
2023-03-06T09:16:11.288Z,51.40
2023-03-06T09:18:39.370Z,53.60
2023-03-06T09:21:08.562Z,54.83
2023-03-06T09:23:40.009Z,54.00
2023-03-06T09:26:08.962Z,55.33
2023-03-06T09:28:38.950Z,52.40
2023-03-06T09:31:10.326Z,53.73
2023-03-06T09:33:38.807Z,53.53
2023-03-06T09:36:15.625Z,55.13
2023-03-06T09:38:45.996Z,51.33
2023-03-06T09:41:29.300Z,52.70
2023-03-06T09:44:04.904Z,58.03
2023-03-06T09:46:45.630Z,54.67
2023-03-06T09:49:36.028Z,54.83
2023-03-06T09:52:17.247Z,57.77
2023-03-06T09:54:48.006Z,52.93
2023-03-06T09:57:22.569Z,54.03
2023-03-06T09:59:55.464Z,53.93
2023-03-06T10:02:31.684Z,53.77
2023-03-06T10:05:04.061Z,54.67
2023-03-06T10:07:43.558Z,52.90
2023-03-06T10:10:19.834Z,50.90
2023-03-06T10:12:54.946Z,51.10
2023-03-06T10:15:26.623Z,51.70
2023-03-06T10:17:55.177Z,52.17
2023-03-06T10:20:26.152Z,51.17
2023-03-06T10:23:05.948Z,53.43
2023-03-06T10:25:44.429Z,50.33
2023-03-06T10:28:17.314Z,53.20
2023-03-06T10:30:56.882Z,53.40
2023-03-06T10:33:39.364Z,52.50
2023-03-06T10:36:07.914Z,52.17
2023-03-06T10:38:37.821Z,51.00
2023-03-06T10:41:17.522Z,51.87
2023-03-06T10:44:08.010Z,53.63
2023-03-06T10:46:39.257Z,53.13
2023-03-06T10:49:23.314Z,57.20
2023-03-06T10:52:00.913Z,51.13
2023-03-06T10:54:33.032Z,52.23
2023-03-06T10:57:20.023Z,58.57
2023-03-06T11:00:04.827Z,51.63
2023-03-06T11:02:38.843Z,53.53
2023-03-06T11:05:21.690Z,55.77
2023-03-06T11:07:56.598Z,54.53
2023-03-06T11:10:24.984Z,55.67
2023-03-06T11:13:06.237Z,56.60
2023-03-06T11:15:35.311Z,56.97
2023-03-06T11:18:23.589Z,60.03
2023-03-06T11:20:54.350Z,57.77
2023-03-06T11:23:30.270Z,59.47
2023-03-06T11:26:04.685Z,64.30
2023-03-06T11:28:35.497Z,56.97
2023-03-06T11:31:12.229Z,56.23
2023-03-06T11:33:49.050Z,54.63
2023-03-06T11:36:19.866Z,54.40
2023-03-06T11:38:51.047Z,51.70
2023-03-06T11:41:26.285Z,54.13
2023-03-06T11:44:02.069Z,56.70
2023-03-06T11:46:35.411Z,58.00
2023-03-06T11:49:12.548Z,58.60
2023-03-06T11:51:45.878Z,56.60
2023-03-06T11:54:14.912Z,60.23
2023-03-06T11:56:50.671Z,56.80
2023-03-06T11:59:51.982Z,57.03
2023-03-06T12:02:35.153Z,56.03
2023-03-06T12:05:21.251Z,52.83
2023-03-06T12:07:55.998Z,55.60
2023-03-06T12:10:27.980Z,57.27
2023-03-06T12:13:14.862Z,58.60
2023-03-06T12:16:04.235Z,56.97
2023-03-06T12:18:41.339Z,53.17
2023-03-06T12:21:19.795Z,58.10
2023-03-06T12:24:08.431Z,51.20
2023-03-06T12:26:51.132Z,52.77
2023-03-06T12:29:50.832Z,49.27
2023-03-06T12:32:31.082Z,49.37
2023-03-06T12:35:09.806Z,53.37
2023-03-06T12:37:53.399Z,52.53
2023-03-06T12:40:52.584Z,52.47
2023-03-06T12:43:53.973Z,45.00
2023-03-06T12:46:25.050Z,48.90
2023-03-06T12:49:03.319Z,43.70
2023-03-06T12:51:32.694Z,42.17
2023-03-06T12:54:04.511Z,43.20
2023-03-06T12:56:34.381Z,43.90
2023-03-06T12:59:03.260Z,44.53
2023-03-06T13:01:55.169Z,41.73
2023-03-06T13:04:46.002Z,43.10
2023-03-06T13:07:45.234Z,39.60
2023-03-06T13:10:24.018Z,44.00
2023-03-06T13:12:56.855Z,38.80
2023-03-06T13:15:38.864Z,44.93
2023-03-06T13:18:55.768Z,39.30
2023-03-06T13:22:01.142Z,36.67
2023-03-06T13:24:31.403Z,39.17
2023-03-06T13:27:03.941Z,40.07
2023-03-06T13:30:04.193Z,36.13
2023-03-06T13:32:35.990Z,35.43
2023-03-06T13:35:48.694Z,32.93
2023-03-06T13:38:53.032Z,38.50
2023-03-06T13:41:52.684Z,40.83
2023-03-06T13:44:43.924Z,35.27
2023-03-06T13:47:46.120Z,34.00
2023-03-06T13:50:40.206Z,35.27
2023-03-06T13:53:51.664Z,36.57
2023-03-06T13:56:48.661Z,31.30
2023-03-06T14:00:03.084Z,31.63
2023-03-06T14:02:59.583Z,28.83
2023-03-06T14:05:42.267Z,30.53
2023-03-06T14:08:14.473Z,31.33
2023-03-06T14:10:43.219Z,29.93
2023-03-06T14:13:18.526Z,30.77
2023-03-06T14:15:48.501Z,29.73
2023-03-06T14:18:26.776Z,30.50
2023-03-06T14:20:58.842Z,30.87
2023-03-06T14:23:30.340Z,26.47
2023-03-06T14:26:09.716Z,28.00
2023-03-06T14:28:39.382Z,29.13
2023-03-06T14:31:08.197Z,35.37
2023-03-06T14:33:50.265Z,28.43
2023-03-06T14:36:21.019Z,28.87
2023-03-06T14:38:54.817Z,24.33
2023-03-06T14:41:28.620Z,23.63
2023-03-06T14:44:10.462Z,23.37
2023-03-06T14:46:38.894Z,24.60
2023-03-06T14:49:10.783Z,20.13
2023-03-06T14:51:43.655Z,20.17
2023-03-06T14:54:18.149Z,26.23
2023-03-06T14:56:49.025Z,14.93
2023-03-06T14:59:22.168Z,16.20
2023-03-06T15:01:52.879Z,16.53
2023-03-06T15:04:29.586Z,12.93
2023-03-06T15:06:59.443Z,15.13
2023-03-06T15:09:30.813Z,15.87
2023-03-06T15:12:00.870Z,17.17
2023-03-06T15:14:33.245Z,11.83
2023-03-06T15:17:31.411Z,9.23
2023-03-06T15:20:02.357Z,9.83
2023-03-06T15:22:37.761Z,7.20
2023-03-06T15:25:21.533Z,7.43
2023-03-06T15:27:54.168Z,6.20
2023-03-06T15:30:26.159Z,6.70
2023-03-06T15:33:13.304Z,5.57
2023-03-06T15:35:57.941Z,5.60
2023-03-06T15:38:33.009Z,5.90
2023-03-06T15:41:03.725Z,6.00
2023-03-06T15:43:36.290Z,4.73
2023-03-06T15:46:07.724Z,6.30
2023-03-06T15:48:37.019Z,6.80
2023-03-06T15:51:08.821Z,4.60
2023-03-06T15:53:37.274Z,3.93
2023-03-06T15:56:05.604Z,3.83
2023-03-06T15:58:35.454Z,3.63
2023-03-06T16:01:04.419Z,4.30
2023-03-06T16:03:32.807Z,1.63
2023-03-06T16:06:00.925Z,1.27
2023-03-06T16:08:30.429Z,1.97
2023-03-06T16:10:59.089Z,1.40
2023-03-06T16:13:29.235Z,1.73
2023-03-06T16:15:57.529Z,1.53
2023-03-06T16:18:25.612Z,1.67
2023-03-06T16:20:53.805Z,1.93
2023-03-06T16:23:21.975Z,1.90
2023-03-06T16:25:51.481Z,2.03
2023-03-06T16:28:19.624Z,5.33
2023-03-06T16:30:47.706Z,4.03
2023-03-06T16:33:16.035Z,4.33
2023-03-06T16:35:46.647Z,5.97
2023-03-06T16:38:15.671Z,8.47
2023-03-06T16:40:44.165Z,3.93
2023-03-06T16:43:16.231Z,5.90
2023-03-06T16:45:44.825Z,4.27
2023-03-06T16:48:17.634Z,4.63
2023-03-06T16:50:46.340Z,3.60
2023-03-06T16:53:15.503Z,3.60
2023-03-06T16:55:43.623Z,6.23
2023-03-06T16:58:13.842Z,4.83
2023-03-06T17:00:42.235Z,2.23
2023-03-06T17:03:10.264Z,2.60
2023-03-06T17:05:43.759Z,2.33
2023-03-06T17:08:15.605Z,2.93
2023-03-06T17:11:04.766Z,4.50
2023-03-06T17:14:06.743Z,4.47
2023-03-06T17:16:36.999Z,6.43
2023-03-06T17:19:05.177Z,5.07
2023-03-06T17:21:35.335Z,6.83
2023-03-06T17:24:03.913Z,5.93
2023-03-06T17:26:32.005Z,7.40
2023-03-06T17:29:01.415Z,10.17
2023-03-06T17:31:29.757Z,14.73
2023-03-06T17:34:00.722Z,13.73
2023-03-06T17:36:29.376Z,12.13
2023-03-06T17:38:58.053Z,13.13
2023-03-06T17:41:26.629Z,16.70
2023-03-06T17:43:57.843Z,24.53
2023-03-06T17:46:27.567Z,27.80
2023-03-06T17:48:56.238Z,29.83
2023-03-06T17:51:27.320Z,34.83
2023-03-06T17:53:55.663Z,32.50
2023-03-06T17:56:23.727Z,37.60
2023-03-06T17:58:52.396Z,38.30
2023-03-06T18:01:22.382Z,39.70
2023-03-06T18:03:52.534Z,42.27
2023-03-06T18:06:22.220Z,37.80
2023-03-06T18:08:53.033Z,40.30
2023-03-06T18:11:22.017Z,42.17
2023-03-06T18:13:50.450Z,38.20
2023-03-06T18:16:20.729Z,33.10
2023-03-06T18:18:49.135Z,38.93
2023-03-06T18:21:18.561Z,35.30
2023-03-06T18:23:46.696Z,32.90
2023-03-06T18:26:17.097Z,35.37
2023-03-06T18:28:46.545Z,34.23
2023-03-06T18:31:18.131Z,37.47
2023-03-06T18:33:48.263Z,35.93
2023-03-06T18:36:18.422Z,39.23
2023-03-06T18:38:48.058Z,37.97
2023-03-06T18:41:16.148Z,38.20
2023-03-06T18:43:44.253Z,36.77
2023-03-06T18:46:12.677Z,37.10
2023-03-06T18:48:40.840Z,35.57
2023-03-06T18:51:10.968Z,35.77
2023-03-06T18:53:40.899Z,36.53
2023-03-06T18:56:10.622Z,35.80
2023-03-06T18:58:38.683Z,38.90
2023-03-06T19:01:07.726Z,37.07
2023-03-06T19:03:36.159Z,36.87
2023-03-06T19:06:07.123Z,37.80
2023-03-06T19:08:36.232Z,37.43
2023-03-06T19:11:09.537Z,36.07
2023-03-06T19:13:38.714Z,35.73
2023-03-06T19:16:08.738Z,35.13
2023-03-06T19:18:37.300Z,35.67
2023-03-06T19:21:09.744Z,36.47
2023-03-06T19:23:39.767Z,33.13
2023-03-06T19:26:10.769Z,36.07
2023-03-06T19:28:41.566Z,36.27
2023-03-06T19:31:12.134Z,36.60
2023-03-06T19:33:41.428Z,37.07
2023-03-06T19:36:12.589Z,30.70
2023-03-06T19:38:41.232Z,35.50
2023-03-06T19:41:13.580Z,37.20
2023-03-06T19:43:42.524Z,36.57
2023-03-06T19:46:13.420Z,36.87
2023-03-06T19:48:41.802Z,34.63
2023-03-06T19:51:10.569Z,35.27
2023-03-06T19:53:39.056Z,34.13
2023-03-06T19:56:09.386Z,37.23
2023-03-06T19:58:40.625Z,38.97
2023-03-06T20:01:10.931Z,37.77
2023-03-06T20:03:39.016Z,35.47
2023-03-06T20:06:09.264Z,36.43
2023-03-06T20:08:37.562Z,35.40
2023-03-06T20:11:06.229Z,35.37
2023-03-06T20:13:34.981Z,38.20
2023-03-06T20:16:05.880Z,36.47
2023-03-06T20:18:34.485Z,36.20
2023-03-06T20:21:04.551Z,38.00
2023-03-06T20:23:33.369Z,39.23
2023-03-06T20:26:04.090Z,40.00
2023-03-06T20:28:32.322Z,39.27
2023-03-06T20:31:00.991Z,35.73
2023-03-06T20:33:30.617Z,37.67
2023-03-06T20:35:58.892Z,34.57
2023-03-06T20:38:27.077Z,36.93
2023-03-06T20:40:57.832Z,37.30
2023-03-06T20:43:26.099Z,38.53
2023-03-06T20:45:58.753Z,36.00
2023-03-06T20:48:27.179Z,36.57
2023-03-06T20:51:04.536Z,34.47
2023-03-06T20:53:32.832Z,37.87
2023-03-06T20:56:00.901Z,33.83
2023-03-06T20:58:31.712Z,35.00
2023-03-06T21:01:02.315Z,33.07
2023-03-06T21:03:31.005Z,35.37
2023-03-06T21:05:59.177Z,32.67
2023-03-06T21:08:29.320Z,36.90
2023-03-06T21:10:57.315Z,37.20
2023-03-06T21:13:25.320Z,34.13
2023-03-06T21:15:53.738Z,32.00
2023-03-06T21:18:21.902Z,32.60
2023-03-06T21:20:50.085Z,30.83
2023-03-06T21:23:18.269Z,34.13
2023-03-06T21:25:52.379Z,33.33
2023-03-06T21:28:21.256Z,33.30
2023-03-06T21:30:49.375Z,33.03
2023-03-06T21:33:17.609Z,34.90
2023-03-06T21:35:46.467Z,34.67
2023-03-06T21:38:15.550Z,33.93
2023-03-06T21:40:45.455Z,34.07
2023-03-06T21:43:15.811Z,34.17
2023-03-06T21:45:45.857Z,34.07
2023-03-06T21:48:14.587Z,34.57
2023-03-06T21:50:43.313Z,33.13
2023-03-06T21:53:11.410Z,33.57
2023-03-06T21:55:41.654Z,31.50
2023-03-06T21:58:10.043Z,30.87
2023-03-06T22:00:41.051Z,32.37
2023-03-06T22:03:09.342Z,31.57
2023-03-06T22:05:37.593Z,32.83
2023-03-06T22:08:05.899Z,33.63
2023-03-06T22:10:35.590Z,33.43
2023-03-06T22:13:03.754Z,32.97
2023-03-06T22:15:32.152Z,35.83
2023-03-06T22:18:02.165Z,31.03
2023-03-06T22:20:30.249Z,33.97
2023-03-06T22:22:58.721Z,33.73
2023-03-06T22:25:26.901Z,33.87
2023-03-06T22:27:55.237Z,31.93
2023-03-06T22:30:23.250Z,32.57
2023-03-06T22:32:53.867Z,32.27
2023-03-06T22:35:24.092Z,33.93
2023-03-06T22:37:52.279Z,33.07
2023-03-06T22:40:20.583Z,33.40
2023-03-06T22:42:48.712Z,32.80
2023-03-06T22:45:17.105Z,32.20
2023-03-06T22:47:45.167Z,31.83
2023-03-06T22:50:13.554Z,33.80
2023-03-06T22:52:43.168Z,33.57
2023-03-06T22:55:11.602Z,33.60
2023-03-06T22:57:39.749Z,33.73
2023-03-06T23:00:11.156Z,32.90
2023-03-06T23:02:39.496Z,33.77
2023-03-06T23:05:07.720Z,31.03
2023-03-06T23:07:35.889Z,33.27
2023-03-06T23:10:06.855Z,31.27
2023-03-06T23:12:34.907Z,33.43
2023-03-06T23:15:03.121Z,30.70
2023-03-06T23:17:31.302Z,31.83
2023-03-06T23:19:59.271Z,28.27
2023-03-06T23:22:27.378Z,28.97
2023-03-06T23:24:55.408Z,27.50
2023-03-06T23:27:24.907Z,29.73
2023-03-06T23:29:56.829Z,29.57
2023-03-06T23:32:24.947Z,29.03
2023-03-06T23:34:53.449Z,30.13
2023-03-06T23:37:21.465Z,31.70
2023-03-06T23:39:49.501Z,32.60
2023-03-06T23:42:17.677Z,30.57
2023-03-06T23:44:47.416Z,32.63
2023-03-06T23:47:17.376Z,31.97
2023-03-06T23:49:45.488Z,33.50
2023-03-06T23:52:13.503Z,32.07
2023-03-06T23:54:41.765Z,33.53
2023-03-06T23:57:10.446Z,30.40
2023-03-06T23:59:38.910Z,33.60
